sensor_id;sensor_type;location;lat;lon;timestamp;P1;durP1;ratioP1;P2;durP2;ratioP2
69894;SDS011;57172;52.034;5.090;2022-07-23T00:00:49;5.55;;;2.63;;
69894;SDS011;57172;52.034;5.090;2022-07-23T00:03:16;5.13;;;2.60;;
69894;SDS011;57172;52.034;5.090;2022-07-23T00:05:43;5.37;;;2.70;;
69894;SDS011;57172;52.034;5.090;2022-07-23T00:08:10;6.25;;;2.78;;
69894;SDS011;57172;52.034;5.090;2022-07-23T00:10:39;4.47;;;2.50;;
69894;SDS011;57172;52.034;5.090;2022-07-23T00:13:07;4.45;;;2.30;;
69894;SDS011;57172;52.034;5.090;2022-07-23T00:15:34;5.70;;;2.88;;
69894;SDS011;57172;52.034;5.090;2022-07-23T00:18:01;4.93;;;2.73;;
69894;SDS011;57172;52.034;5.090;2022-07-23T00:20:28;5.28;;;2.60;;
69894;SDS011;57172;52.034;5.090;2022-07-23T00:22:55;4.75;;;2.35;;
69894;SDS011;57172;52.034;5.090;2022-07-23T00:25:22;7.35;;;2.70;;
69894;SDS011;57172;52.034;5.090;2022-07-23T00:27:55;4.90;;;2.78;;
69894;SDS011;57172;52.034;5.090;2022-07-23T00:30:23;4.80;;;2.80;;
69894;SDS011;57172;52.034;5.090;2022-07-23T00:32:55;5.55;;;2.80;;
69894;SDS011;57172;52.034;5.090;2022-07-23T00:35:24;6.40;;;2.80;;
69894;SDS011;57172;52.034;5.090;2022-07-23T00:37:53;3.53;;;2.47;;
69894;SDS011;57172;52.034;5.090;2022-07-23T00:40:21;4.47;;;2.60;;
69894;SDS011;57172;52.034;5.090;2022-07-23T00:42:48;4.40;;;2.37;;
69894;SDS011;57172;52.034;5.090;2022-07-23T00:45:17;5.00;;;2.40;;
69894;SDS011;57172;52.034;5.090;2022-07-23T00:47:44;7.40;;;2.35;;
69894;SDS011;57172;52.034;5.090;2022-07-23T00:50:12;4.20;;;2.35;;
69894;SDS011;57172;52.034;5.090;2022-07-23T00:52:40;5.05;;;2.22;;
69894;SDS011;57172;52.034;5.090;2022-07-23T00:55:07;5.90;;;2.23;;
69894;SDS011;57172;52.034;5.090;2022-07-23T00:57:35;4.93;;;2.40;;
69894;SDS011;57172;52.034;5.090;2022-07-23T01:00:03;5.03;;;2.25;;
69894;SDS011;57172;52.034;5.090;2022-07-23T01:02:32;5.40;;;2.47;;
69894;SDS011;57172;52.034;5.090;2022-07-23T01:04:59;5.82;;;2.35;;
69894;SDS011;57172;52.034;5.090;2022-07-23T01:07:26;4.70;;;2.40;;
69894;SDS011;57172;52.034;5.090;2022-07-23T01:09:53;3.78;;;2.42;;
69894;SDS011;57172;52.034;5.090;2022-07-23T01:12:21;6.80;;;2.70;;
69894;SDS011;57172;52.034;5.090;2022-07-23T01:14:54;4.80;;;2.15;;
69894;SDS011;57172;52.034;5.090;2022-07-23T01:17:22;5.10;;;2.30;;
69894;SDS011;57172;52.034;5.090;2022-07-23T01:19:49;4.40;;;2.40;;
69894;SDS011;57172;52.034;5.090;2022-07-23T01:22:17;4.07;;;2.25;;
69894;SDS011;57172;52.034;5.090;2022-07-23T01:24:46;5.65;;;2.63;;
69894;SDS011;57172;52.034;5.090;2022-07-23T01:27:14;7.82;;;2.40;;
69894;SDS011;57172;52.034;5.090;2022-07-23T01:29:44;8.65;;;3.20;;
69894;SDS011;57172;52.034;5.090;2022-07-23T01:32:16;6.80;;;2.80;;
69894;SDS011;57172;52.034;5.090;2022-07-23T01:34:43;7.05;;;2.90;;
69894;SDS011;57172;52.034;5.090;2022-07-23T01:37:10;6.72;;;2.97;;
69894;SDS011;57172;52.034;5.090;2022-07-23T01:39:38;5.88;;;2.70;;
69894;SDS011;57172;52.034;5.090;2022-07-23T01:42:05;6.22;;;2.67;;
69894;SDS011;57172;52.034;5.090;2022-07-23T01:44:34;6.10;;;2.70;;
69894;SDS011;57172;52.034;5.090;2022-07-23T01:47:01;6.05;;;2.45;;
69894;SDS011;57172;52.034;5.090;2022-07-23T01:49:29;5.07;;;2.50;;
69894;SDS011;57172;52.034;5.090;2022-07-23T01:52:24;4.40;;;2.67;;
69894;SDS011;57172;52.034;5.090;2022-07-23T01:54:51;5.20;;;2.80;;
69894;SDS011;57172;52.034;5.090;2022-07-23T01:57:18;5.63;;;2.73;;
69894;SDS011;57172;52.034;5.090;2022-07-23T01:59:44;3.80;;;2.50;;
69894;SDS011;57172;52.034;5.090;2022-07-23T02:02:11;4.03;;;2.30;;
69894;SDS011;57172;52.034;5.090;2022-07-23T02:04:38;4.72;;;2.67;;
69894;SDS011;57172;52.034;5.090;2022-07-23T02:07:05;4.57;;;2.50;;
69894;SDS011;57172;52.034;5.090;2022-07-23T02:09:32;6.87;;;2.80;;
69894;SDS011;57172;52.034;5.090;2022-07-23T02:11:59;6.10;;;2.92;;
69894;SDS011;57172;52.034;5.090;2022-07-23T02:14:26;5.50;;;2.50;;
69894;SDS011;57172;52.034;5.090;2022-07-23T02:16:54;6.00;;;2.83;;
69894;SDS011;57172;52.034;5.090;2022-07-23T02:19:21;5.05;;;2.63;;
69894;SDS011;57172;52.034;5.090;2022-07-23T02:21:48;5.67;;;2.90;;
69894;SDS011;57172;52.034;5.090;2022-07-23T02:24:18;5.20;;;2.75;;
69894;SDS011;57172;52.034;5.090;2022-07-23T02:26:45;6.70;;;2.90;;
69894;SDS011;57172;52.034;5.090;2022-07-23T02:29:12;5.20;;;2.88;;
69894;SDS011;57172;52.034;5.090;2022-07-23T02:31:39;5.65;;;2.80;;
69894;SDS011;57172;52.034;5.090;2022-07-23T02:34:06;5.23;;;2.90;;
69894;SDS011;57172;52.034;5.090;2022-07-23T02:36:38;7.13;;;2.85;;
69894;SDS011;57172;52.034;5.090;2022-07-23T02:39:06;5.60;;;2.95;;
69894;SDS011;57172;52.034;5.090;2022-07-23T02:41:34;5.55;;;3.00;;
69894;SDS011;57172;52.034;5.090;2022-07-23T02:44:01;7.72;;;3.40;;
69894;SDS011;57172;52.034;5.090;2022-07-23T02:46:28;5.93;;;3.07;;
69894;SDS011;57172;52.034;5.090;2022-07-23T02:48:56;5.88;;;3.00;;
69894;SDS011;57172;52.034;5.090;2022-07-23T02:51:23;13.32;;;3.10;;
69894;SDS011;57172;52.034;5.090;2022-07-23T02:53:55;5.68;;;2.97;;
69894;SDS011;57172;52.034;5.090;2022-07-23T02:56:22;5.18;;;2.88;;
69894;SDS011;57172;52.034;5.090;2022-07-23T02:58:49;5.57;;;3.10;;
69894;SDS011;57172;52.034;5.090;2022-07-23T03:01:17;5.75;;;2.80;;
69894;SDS011;57172;52.034;5.090;2022-07-23T03:03:46;6.80;;;3.20;;
69894;SDS011;57172;52.034;5.090;2022-07-23T03:06:13;6.18;;;3.00;;
69894;SDS011;57172;52.034;5.090;2022-07-23T03:08:40;5.88;;;3.10;;
69894;SDS011;57172;52.034;5.090;2022-07-23T03:11:07;4.63;;;2.63;;
69894;SDS011;57172;52.034;5.090;2022-07-23T03:13:38;5.57;;;2.90;;
69894;SDS011;57172;52.034;5.090;2022-07-23T03:16:06;6.85;;;3.30;;
69894;SDS011;57172;52.034;5.090;2022-07-23T03:18:35;6.00;;;3.10;;
69894;SDS011;57172;52.034;5.090;2022-07-23T03:21:07;5.18;;;2.92;;
69894;SDS011;57172;52.034;5.090;2022-07-23T03:23:34;5.20;;;3.00;;
69894;SDS011;57172;52.034;5.090;2022-07-23T03:26:01;6.38;;;3.10;;
69894;SDS011;57172;52.034;5.090;2022-07-23T03:28:28;5.78;;;3.10;;
69894;SDS011;57172;52.034;5.090;2022-07-23T03:30:54;5.75;;;3.10;;
69894;SDS011;57172;52.034;5.090;2022-07-23T03:33:21;7.38;;;3.28;;
69894;SDS011;57172;52.034;5.090;2022-07-23T03:35:49;5.17;;;3.00;;
69894;SDS011;57172;52.034;5.090;2022-07-23T03:38:23;5.75;;;3.10;;
69894;SDS011;57172;52.034;5.090;2022-07-23T03:40:50;7.20;;;3.38;;
69894;SDS011;57172;52.034;5.090;2022-07-23T03:43:17;5.85;;;3.35;;
69894;SDS011;57172;52.034;5.090;2022-07-23T03:45:44;6.07;;;3.13;;
69894;SDS011;57172;52.034;5.090;2022-07-23T03:48:11;6.10;;;3.23;;
69894;SDS011;57172;52.034;5.090;2022-07-23T03:50:38;10.75;;;3.80;;
69894;SDS011;57172;52.034;5.090;2022-07-23T03:53:05;6.63;;;3.53;;
69894;SDS011;57172;52.034;5.090;2022-07-23T03:55:33;5.32;;;3.00;;
69894;SDS011;57172;52.034;5.090;2022-07-23T03:58:00;6.03;;;3.50;;
69894;SDS011;57172;52.034;5.090;2022-07-23T04:00:28;5.47;;;3.10;;
69894;SDS011;57172;52.034;5.090;2022-07-23T04:02:55;6.72;;;3.25;;
69894;SDS011;57172;52.034;5.090;2022-07-23T04:05:22;6.97;;;3.47;;
69894;SDS011;57172;52.034;5.090;2022-07-23T04:07:55;7.25;;;3.60;;
69894;SDS011;57172;52.034;5.090;2022-07-23T04:10:22;8.15;;;3.40;;
69894;SDS011;57172;52.034;5.090;2022-07-23T04:12:49;5.70;;;3.20;;
69894;SDS011;57172;52.034;5.090;2022-07-23T04:15:16;7.05;;;3.33;;
69894;SDS011;57172;52.034;5.090;2022-07-23T04:17:43;8.18;;;3.50;;
69894;SDS011;57172;52.034;5.090;2022-07-23T04:20:11;6.03;;;3.25;;
69894;SDS011;57172;52.034;5.090;2022-07-23T04:22:45;5.40;;;3.30;;
69894;SDS011;57172;52.034;5.090;2022-07-23T04:25:12;6.87;;;3.50;;
69894;SDS011;57172;52.034;5.090;2022-07-23T04:27:43;5.97;;;3.22;;
69894;SDS011;57172;52.034;5.090;2022-07-23T04:30:10;7.85;;;3.50;;
69894;SDS011;57172;52.034;5.090;2022-07-23T04:32:37;6.53;;;3.17;;
69894;SDS011;57172;52.034;5.090;2022-07-23T04:35:11;8.90;;;3.50;;
69894;SDS011;57172;52.034;5.090;2022-07-23T04:37:41;7.07;;;3.80;;
69894;SDS011;57172;52.034;5.090;2022-07-23T04:40:09;6.38;;;3.92;;
69894;SDS011;57172;52.034;5.090;2022-07-23T04:42:38;5.85;;;3.67;;
69894;SDS011;57172;52.034;5.090;2022-07-23T04:45:06;11.48;;;3.92;;
69894;SDS011;57172;52.034;5.090;2022-07-23T04:47:38;7.68;;;3.70;;
69894;SDS011;57172;52.034;5.090;2022-07-23T04:50:05;7.00;;;3.50;;
69894;SDS011;57172;52.034;5.090;2022-07-23T04:52:33;7.90;;;3.70;;
69894;SDS011;57172;52.034;5.090;2022-07-23T04:55:00;6.78;;;3.80;;
69894;SDS011;57172;52.034;5.090;2022-07-23T04:57:27;6.22;;;3.65;;
69894;SDS011;57172;52.034;5.090;2022-07-23T04:59:54;6.60;;;4.25;;
69894;SDS011;57172;52.034;5.090;2022-07-23T05:02:21;6.40;;;3.60;;
69894;SDS011;57172;52.034;5.090;2022-07-23T05:04:48;5.97;;;3.60;;
69894;SDS011;57172;52.034;5.090;2022-07-23T05:07:15;7.63;;;4.10;;
69894;SDS011;57172;52.034;5.090;2022-07-23T05:09:42;6.72;;;3.50;;
69894;SDS011;57172;52.034;5.090;2022-07-23T05:12:09;6.70;;;3.80;;
69894;SDS011;57172;52.034;5.090;2022-07-23T05:14:36;6.93;;;4.00;;
69894;SDS011;57172;52.034;5.090;2022-07-23T05:17:03;7.88;;;4.03;;
69894;SDS011;57172;52.034;5.090;2022-07-23T05:19:30;7.45;;;3.92;;
69894;SDS011;57172;52.034;5.090;2022-07-23T05:21:57;11.38;;;4.13;;
69894;SDS011;57172;52.034;5.090;2022-07-23T05:24:24;9.07;;;4.07;;
69894;SDS011;57172;52.034;5.090;2022-07-23T05:26:52;8.37;;;4.07;;
69894;SDS011;57172;52.034;5.090;2022-07-23T05:29:20;8.98;;;4.00;;
69894;SDS011;57172;52.034;5.090;2022-07-23T05:31:47;8.50;;;4.20;;
69894;SDS011;57172;52.034;5.090;2022-07-23T05:34:14;9.35;;;4.10;;
69894;SDS011;57172;52.034;5.090;2022-07-23T05:36:46;7.78;;;3.90;;
69894;SDS011;57172;52.034;5.090;2022-07-23T05:39:15;10.67;;;3.90;;
69894;SDS011;57172;52.034;5.090;2022-07-23T05:41:42;7.28;;;3.80;;
69894;SDS011;57172;52.034;5.090;2022-07-23T05:44:09;6.93;;;3.60;;
69894;SDS011;57172;52.034;5.090;2022-07-23T05:46:39;6.82;;;3.75;;
69894;SDS011;57172;52.034;5.090;2022-07-23T05:49:08;6.38;;;3.42;;
69894;SDS011;57172;52.034;5.090;2022-07-23T05:52:04;8.37;;;4.03;;
69894;SDS011;57172;52.034;5.090;2022-07-23T05:54:53;8.10;;;3.78;;
69894;SDS011;57172;52.034;5.090;2022-07-23T05:57:21;5.88;;;3.17;;
69894;SDS011;57172;52.034;5.090;2022-07-23T05:59:51;6.30;;;3.20;;
69894;SDS011;57172;52.034;5.090;2022-07-23T06:02:17;7.60;;;3.08;;
69894;SDS011;57172;52.034;5.090;2022-07-23T06:04:44;7.67;;;2.93;;
69894;SDS011;57172;52.034;5.090;2022-07-23T06:07:21;5.13;;;2.45;;
69894;SDS011;57172;52.034;5.090;2022-07-23T06:09:48;4.72;;;2.42;;
69894;SDS011;57172;52.034;5.090;2022-07-23T06:12:16;4.57;;;2.30;;
69894;SDS011;57172;52.034;5.090;2022-07-23T06:14:43;7.80;;;2.53;;
69894;SDS011;57172;52.034;5.090;2022-07-23T06:17:10;6.33;;;2.60;;
69894;SDS011;57172;52.034;5.090;2022-07-23T06:19:37;5.65;;;2.60;;
69894;SDS011;57172;52.034;5.090;2022-07-23T06:22:04;5.93;;;2.40;;
69894;SDS011;57172;52.034;5.090;2022-07-23T06:24:31;5.65;;;2.40;;
69894;SDS011;57172;52.034;5.090;2022-07-23T06:26:57;4.50;;;2.25;;
69894;SDS011;57172;52.034;5.090;2022-07-23T06:29:24;5.50;;;2.50;;
69894;SDS011;57172;52.034;5.090;2022-07-23T06:31:51;4.10;;;2.20;;
69894;SDS011;57172;52.034;5.090;2022-07-23T06:34:18;5.10;;;2.50;;
69894;SDS011;57172;52.034;5.090;2022-07-23T06:36:45;4.80;;;2.40;;
69894;SDS011;57172;52.034;5.090;2022-07-23T06:39:12;7.40;;;2.20;;
69894;SDS011;57172;52.034;5.090;2022-07-23T06:41:42;6.77;;;2.33;;
69894;SDS011;57172;52.034;5.090;2022-07-23T06:44:16;4.68;;;1.90;;
69894;SDS011;57172;52.034;5.090;2022-07-23T06:46:43;8.55;;;2.13;;
69894;SDS011;57172;52.034;5.090;2022-07-23T06:49:10;4.55;;;1.90;;
69894;SDS011;57172;52.034;5.090;2022-07-23T06:51:37;4.57;;;2.03;;
69894;SDS011;57172;52.034;5.090;2022-07-23T06:54:04;7.10;;;2.00;;
69894;SDS011;57172;52.034;5.090;2022-07-23T06:56:31;3.92;;;1.90;;
69894;SDS011;57172;52.034;5.090;2022-07-23T06:58:58;5.60;;;2.00;;
69894;SDS011;57172;52.034;5.090;2022-07-23T07:01:26;4.65;;;2.30;;
69894;SDS011;57172;52.034;5.090;2022-07-23T07:03:53;5.32;;;2.28;;
69894;SDS011;57172;52.034;5.090;2022-07-23T07:06:19;5.57;;;2.37;;
69894;SDS011;57172;52.034;5.090;2022-07-23T07:08:46;6.22;;;2.40;;
69894;SDS011;57172;52.034;5.090;2022-07-23T07:11:13;4.90;;;2.20;;
69894;SDS011;57172;52.034;5.090;2022-07-23T07:13:40;5.28;;;2.60;;
69894;SDS011;57172;52.034;5.090;2022-07-23T07:16:07;7.15;;;2.45;;
69894;SDS011;57172;52.034;5.090;2022-07-23T07:18:34;5.97;;;2.60;;
69894;SDS011;57172;52.034;5.090;2022-07-23T07:21:01;5.38;;;2.50;;
69894;SDS011;57172;52.034;5.090;2022-07-23T07:23:27;4.35;;;2.50;;
69894;SDS011;57172;52.034;5.090;2022-07-23T07:25:54;8.70;;;2.80;;
69894;SDS011;57172;52.034;5.090;2022-07-23T07:28:21;7.90;;;2.90;;
69894;SDS011;57172;52.034;5.090;2022-07-23T07:30:48;6.93;;;2.60;;
69894;SDS011;57172;52.034;5.090;2022-07-23T07:33:15;4.88;;;2.55;;
69894;SDS011;57172;52.034;5.090;2022-07-23T07:35:42;6.43;;;2.70;;
69894;SDS011;57172;52.034;5.090;2022-07-23T07:38:09;8.10;;;2.75;;
69894;SDS011;57172;52.034;5.090;2022-07-23T07:40:36;5.97;;;2.60;;
69894;SDS011;57172;52.034;5.090;2022-07-23T07:43:02;7.87;;;2.50;;
69894;SDS011;57172;52.034;5.090;2022-07-23T07:45:29;5.95;;;2.40;;
69894;SDS011;57172;52.034;5.090;2022-07-23T07:47:56;5.22;;;2.50;;
69894;SDS011;57172;52.034;5.090;2022-07-23T07:50:23;4.43;;;2.00;;
69894;SDS011;57172;52.034;5.090;2022-07-23T07:52:51;5.45;;;2.00;;
69894;SDS011;57172;52.034;5.090;2022-07-23T07:55:17;3.67;;;2.10;;
69894;SDS011;57172;52.034;5.090;2022-07-23T07:57:45;5.07;;;2.10;;
69894;SDS011;57172;52.034;5.090;2022-07-23T08:00:14;4.28;;;2.00;;
69894;SDS011;57172;52.034;5.090;2022-07-23T08:02:45;3.78;;;1.98;;
69894;SDS011;57172;52.034;5.090;2022-07-23T08:05:18;3.80;;;2.00;;
69894;SDS011;57172;52.034;5.090;2022-07-23T08:07:53;4.30;;;2.00;;
69894;SDS011;57172;52.034;5.090;2022-07-23T08:10:22;4.72;;;1.90;;
69894;SDS011;57172;52.034;5.090;2022-07-23T08:12:51;4.10;;;2.13;;
69894;SDS011;57172;52.034;5.090;2022-07-23T08:15:23;3.95;;;1.80;;
69894;SDS011;57172;52.034;5.090;2022-07-23T08:17:51;3.33;;;2.00;;
69894;SDS011;57172;52.034;5.090;2022-07-23T08:20:19;3.77;;;2.00;;
69894;SDS011;57172;52.034;5.090;2022-07-23T08:22:51;5.38;;;1.77;;
69894;SDS011;57172;52.034;5.090;2022-07-23T08:25:23;5.63;;;1.85;;
69894;SDS011;57172;52.034;5.090;2022-07-23T08:27:52;4.28;;;2.00;;
69894;SDS011;57172;52.034;5.090;2022-07-23T08:30:19;4.00;;;1.80;;
69894;SDS011;57172;52.034;5.090;2022-07-23T08:32:54;3.37;;;1.90;;
69894;SDS011;57172;52.034;5.090;2022-07-23T08:35:23;4.25;;;1.95;;
69894;SDS011;57172;52.034;5.090;2022-07-23T08:37:52;3.10;;;1.70;;
69894;SDS011;57172;52.034;5.090;2022-07-23T08:40:19;4.43;;;1.70;;
69894;SDS011;57172;52.034;5.090;2022-07-23T08:42:49;4.38;;;1.75;;
69894;SDS011;57172;52.034;5.090;2022-07-23T08:45:20;3.73;;;1.80;;
69894;SDS011;57172;52.034;5.090;2022-07-23T08:47:55;3.95;;;1.77;;
69894;SDS011;57172;52.034;5.090;2022-07-23T08:50:31;3.13;;;1.80;;
69894;SDS011;57172;52.034;5.090;2022-07-23T08:53:02;3.75;;;1.80;;
69894;SDS011;57172;52.034;5.090;2022-07-23T08:55:32;4.28;;;1.77;;
69894;SDS011;57172;52.034;5.090;2022-07-23T08:58:00;4.27;;;1.90;;
69894;SDS011;57172;52.034;5.090;2022-07-23T09:00:28;3.45;;;1.80;;
69894;SDS011;57172;52.034;5.090;2022-07-23T09:02:55;4.53;;;1.70;;
69894;SDS011;57172;52.034;5.090;2022-07-23T09:05:22;4.22;;;1.75;;
69894;SDS011;57172;52.034;5.090;2022-07-23T09:10:46;3.53;;;1.63;;
69894;SDS011;57172;52.034;5.090;2022-07-23T09:13:23;2.92;;;1.70;;
69894;SDS011;57172;52.034;5.090;2022-07-23T09:15:55;2.88;;;1.60;;
69894;SDS011;57172;52.034;5.090;2022-07-23T09:18:31;2.30;;;1.30;;
69894;SDS011;57172;52.034;5.090;2022-07-23T09:23:43;3.10;;;1.40;;
69894;SDS011;57172;52.034;5.090;2022-07-23T09:26:18;4.18;;;1.67;;
69894;SDS011;57172;52.034;5.090;2022-07-23T09:31:20;3.72;;;1.60;;
69894;SDS011;57172;52.034;5.090;2022-07-23T09:33:47;4.50;;;1.75;;
69894;SDS011;57172;52.034;5.090;2022-07-23T09:36:14;5.37;;;1.83;;
69894;SDS011;57172;52.034;5.090;2022-07-23T09:38:50;2.13;;;1.40;;
69894;SDS011;57172;52.034;5.090;2022-07-23T09:41:18;4.10;;;1.33;;
69894;SDS011;57172;52.034;5.090;2022-07-23T09:43:45;4.53;;;1.50;;
69894;SDS011;57172;52.034;5.090;2022-07-23T09:46:22;4.53;;;1.42;;
69894;SDS011;57172;52.034;5.090;2022-07-23T09:48:51;4.17;;;1.30;;
69894;SDS011;57172;52.034;5.090;2022-07-23T09:51:20;3.75;;;1.45;;
69894;SDS011;57172;52.034;5.090;2022-07-23T09:54:05;3.85;;;1.40;;
69894;SDS011;57172;52.034;5.090;2022-07-23T09:56:46;4.82;;;1.48;;
69894;SDS011;57172;52.034;5.090;2022-07-23T09:59:15;4.32;;;1.67;;
69894;SDS011;57172;52.034;5.090;2022-07-23T10:01:44;4.37;;;1.73;;
69894;SDS011;57172;52.034;5.090;2022-07-23T10:04:11;4.43;;;1.73;;
69894;SDS011;57172;52.034;5.090;2022-07-23T10:07:06;4.10;;;1.60;;
69894;SDS011;57172;52.034;5.090;2022-07-23T10:09:57;4.45;;;1.50;;
69894;SDS011;57172;52.034;5.090;2022-07-23T10:12:44;5.93;;;1.60;;
69894;SDS011;57172;52.034;5.090;2022-07-23T10:15:18;3.77;;;1.50;;
69894;SDS011;57172;52.034;5.090;2022-07-23T10:17:45;3.72;;;1.50;;
69894;SDS011;57172;52.034;5.090;2022-07-23T10:20:13;3.53;;;1.50;;
69894;SDS011;57172;52.034;5.090;2022-07-23T10:22:42;4.43;;;1.50;;
69894;SDS011;57172;52.034;5.090;2022-07-23T10:25:25;5.13;;;1.77;;
69894;SDS011;57172;52.034;5.090;2022-07-23T10:31:14;6.40;;;1.80;;
69894;SDS011;57172;52.034;5.090;2022-07-23T10:34:21;3.88;;;1.58;;
69894;SDS011;57172;52.034;5.090;2022-07-23T10:37:14;3.00;;;1.42;;
69894;SDS011;57172;52.034;5.090;2022-07-23T10:42:44;3.93;;;1.50;;
69894;SDS011;57172;52.034;5.090;2022-07-23T10:45:29;3.33;;;1.35;;
69894;SDS011;57172;52.034;5.090;2022-07-23T10:48:12;4.45;;;1.60;;
69894;SDS011;57172;52.034;5.090;2022-07-23T10:51:10;2.80;;;1.40;;
69894;SDS011;57172;52.034;5.090;2022-07-23T10:56:48;3.17;;;1.70;;
69894;SDS011;57172;52.034;5.090;2022-07-23T10:59:30;4.07;;;1.77;;
69894;SDS011;57172;52.034;5.090;2022-07-23T11:02:20;2.88;;;1.50;;
69894;SDS011;57172;52.034;5.090;2022-07-23T11:04:48;5.22;;;1.60;;
69894;SDS011;57172;52.034;5.090;2022-07-23T11:07:16;3.45;;;1.67;;
69894;SDS011;57172;52.034;5.090;2022-07-23T11:09:47;3.67;;;1.40;;
69894;SDS011;57172;52.034;5.090;2022-07-23T11:15:05;2.72;;;1.50;;
69894;SDS011;57172;52.034;5.090;2022-07-23T11:17:33;3.22;;;1.50;;
69894;SDS011;57172;52.034;5.090;2022-07-23T11:25:04;2.97;;;1.77;;
69894;SDS011;57172;52.034;5.090;2022-07-23T11:27:39;3.22;;;1.63;;
69894;SDS011;57172;52.034;5.090;2022-07-23T11:30:12;3.80;;;1.80;;
69894;SDS011;57172;52.034;5.090;2022-07-23T11:35:37;3.37;;;1.70;;
69894;SDS011;57172;52.034;5.090;2022-07-23T11:38:21;3.22;;;1.60;;
69894;SDS011;57172;52.034;5.090;2022-07-23T11:40:50;2.92;;;1.67;;
69894;SDS011;57172;52.034;5.090;2022-07-23T11:43:18;3.00;;;1.60;;
69894;SDS011;57172;52.034;5.090;2022-07-23T11:45:50;4.15;;;1.70;;
69894;SDS011;57172;52.034;5.090;2022-07-23T11:50:52;3.33;;;1.80;;
69894;SDS011;57172;52.034;5.090;2022-07-23T11:53:21;2.97;;;1.50;;
69894;SDS011;57172;52.034;5.090;2022-07-23T11:55:49;3.63;;;1.60;;
69894;SDS011;57172;52.034;5.090;2022-07-23T11:58:17;4.38;;;1.70;;
69894;SDS011;57172;52.034;5.090;2022-07-23T12:00:45;2.63;;;1.57;;
69894;SDS011;57172;52.034;5.090;2022-07-23T12:03:13;4.65;;;1.77;;
69894;SDS011;57172;52.034;5.090;2022-07-23T12:05:40;3.33;;;1.50;;
69894;SDS011;57172;52.034;5.090;2022-07-23T12:08:07;3.10;;;1.60;;
69894;SDS011;57172;52.034;5.090;2022-07-23T12:10:40;3.30;;;1.92;;
69894;SDS011;57172;52.034;5.090;2022-07-23T12:13:10;2.17;;;1.50;;
69894;SDS011;57172;52.034;5.090;2022-07-23T12:15:53;2.47;;;1.50;;
69894;SDS011;57172;52.034;5.090;2022-07-23T12:18:25;5.90;;;1.73;;
69894;SDS011;57172;52.034;5.090;2022-07-23T12:20:56;3.45;;;1.80;;
69894;SDS011;57172;52.034;5.090;2022-07-23T12:23:29;3.33;;;1.75;;
69894;SDS011;57172;52.034;5.090;2022-07-23T12:25:55;3.03;;;1.70;;
69894;SDS011;57172;52.034;5.090;2022-07-23T12:28:28;3.55;;;1.98;;
69894;SDS011;57172;52.034;5.090;2022-07-23T12:30:58;3.42;;;1.70;;
69894;SDS011;57172;52.034;5.090;2022-07-23T12:36:01;4.15;;;1.73;;
69894;SDS011;57172;52.034;5.090;2022-07-23T12:38:40;2.73;;;1.90;;
69894;SDS011;57172;52.034;5.090;2022-07-23T12:41:15;2.90;;;1.85;;
69894;SDS011;57172;52.034;5.090;2022-07-23T12:43:43;3.45;;;1.80;;
69894;SDS011;57172;52.034;5.090;2022-07-23T12:46:13;3.80;;;1.98;;
69894;SDS011;57172;52.034;5.090;2022-07-23T12:48:52;3.53;;;2.20;;
69894;SDS011;57172;52.034;5.090;2022-07-23T12:51:24;4.60;;;2.10;;
69894;SDS011;57172;52.034;5.090;2022-07-23T12:54:06;5.50;;;2.50;;
69894;SDS011;57172;52.034;5.090;2022-07-23T12:56:36;3.80;;;2.17;;
69894;SDS011;57172;52.034;5.090;2022-07-23T12:59:08;4.32;;;2.40;;
69894;SDS011;57172;52.034;5.090;2022-07-23T13:01:38;4.25;;;2.20;;
69894;SDS011;57172;52.034;5.090;2022-07-23T13:04:07;3.83;;;2.20;;
69894;SDS011;57172;52.034;5.090;2022-07-23T13:09:13;7.93;;;2.33;;
69894;SDS011;57172;52.034;5.090;2022-07-23T13:11:41;2.70;;;1.80;;
69894;SDS011;57172;52.034;5.090;2022-07-23T13:14:09;3.42;;;2.20;;
69894;SDS011;57172;52.034;5.090;2022-07-23T13:16:37;3.70;;;2.23;;
69894;SDS011;57172;52.034;5.090;2022-07-23T13:19:05;3.38;;;2.30;;
69894;SDS011;57172;52.034;5.090;2022-07-23T13:21:37;3.83;;;2.20;;
69894;SDS011;57172;52.034;5.090;2022-07-23T13:24:04;4.18;;;2.22;;
69894;SDS011;57172;52.034;5.090;2022-07-23T13:26:34;3.30;;;2.10;;
69894;SDS011;57172;52.034;5.090;2022-07-23T13:29:03;3.90;;;1.90;;
69894;SDS011;57172;52.034;5.090;2022-07-23T13:31:35;3.85;;;1.90;;
69894;SDS011;57172;52.034;5.090;2022-07-23T13:34:04;3.25;;;1.90;;
69894;SDS011;57172;52.034;5.090;2022-07-23T13:36:33;3.38;;;2.03;;
69894;SDS011;57172;52.034;5.090;2022-07-23T13:39:00;4.60;;;2.13;;
69894;SDS011;57172;52.034;5.090;2022-07-23T13:41:28;3.87;;;2.30;;
69894;SDS011;57172;52.034;5.090;2022-07-23T13:43:56;4.93;;;2.10;;
69894;SDS011;57172;52.034;5.090;2022-07-23T13:46:23;4.20;;;2.03;;
69894;SDS011;57172;52.034;5.090;2022-07-23T13:48:50;3.95;;;2.00;;
69894;SDS011;57172;52.034;5.090;2022-07-23T13:51:17;3.92;;;2.10;;
69894;SDS011;57172;52.034;5.090;2022-07-23T13:53:45;4.17;;;2.00;;
69894;SDS011;57172;52.034;5.090;2022-07-23T13:56:12;3.90;;;2.10;;
69894;SDS011;57172;52.034;5.090;2022-07-23T13:58:39;4.40;;;2.00;;
69894;SDS011;57172;52.034;5.090;2022-07-23T14:01:07;3.38;;;2.03;;
69894;SDS011;57172;52.034;5.090;2022-07-23T14:03:34;4.22;;;2.20;;
69894;SDS011;57172;52.034;5.090;2022-07-23T14:06:01;7.40;;;2.27;;
69894;SDS011;57172;52.034;5.090;2022-07-23T14:08:28;5.00;;;2.45;;
69894;SDS011;57172;52.034;5.090;2022-07-23T14:10:55;3.47;;;2.05;;
69894;SDS011;57172;52.034;5.090;2022-07-23T14:13:24;3.90;;;2.00;;
69894;SDS011;57172;52.034;5.090;2022-07-23T14:15:51;4.20;;;2.13;;
69894;SDS011;57172;52.034;5.090;2022-07-23T14:18:18;4.10;;;1.90;;
69894;SDS011;57172;52.034;5.090;2022-07-23T14:20:47;4.35;;;2.13;;
69894;SDS011;57172;52.034;5.090;2022-07-23T14:23:13;3.78;;;2.13;;
69894;SDS011;57172;52.034;5.090;2022-07-23T14:25:40;4.30;;;2.10;;
69894;SDS011;57172;52.034;5.090;2022-07-23T14:28:08;3.35;;;2.20;;
69894;SDS011;57172;52.034;5.090;2022-07-23T14:30:35;6.57;;;2.90;;
69894;SDS011;57172;52.034;5.090;2022-07-23T14:33:02;5.00;;;2.83;;
69894;SDS011;57172;52.034;5.090;2022-07-23T14:35:29;5.75;;;3.17;;
69894;SDS011;57172;52.034;5.090;2022-07-23T14:37:55;3.70;;;2.53;;
69894;SDS011;57172;52.034;5.090;2022-07-23T14:40:23;5.80;;;2.50;;
69894;SDS011;57172;52.034;5.090;2022-07-23T14:42:50;4.67;;;2.23;;
69894;SDS011;57172;52.034;5.090;2022-07-23T14:45:16;8.10;;;4.32;;
69894;SDS011;57172;52.034;5.090;2022-07-23T14:47:44;6.38;;;3.55;;
69894;SDS011;57172;52.034;5.090;2022-07-23T14:50:13;6.72;;;3.63;;
69894;SDS011;57172;52.034;5.090;2022-07-23T14:52:40;6.50;;;3.40;;
69894;SDS011;57172;52.034;5.090;2022-07-23T14:55:07;4.57;;;2.77;;
69894;SDS011;57172;52.034;5.090;2022-07-23T14:57:35;5.65;;;2.50;;
69894;SDS011;57172;52.034;5.090;2022-07-23T15:00:03;5.45;;;3.00;;
69894;SDS011;57172;52.034;5.090;2022-07-23T15:02:31;5.28;;;2.35;;
69894;SDS011;57172;52.034;5.090;2022-07-23T15:04:58;4.00;;;2.40;;
69894;SDS011;57172;52.034;5.090;2022-07-23T15:07:27;4.87;;;2.33;;
69894;SDS011;57172;52.034;5.090;2022-07-23T15:09:57;3.33;;;2.13;;
69894;SDS011;57172;52.034;5.090;2022-07-23T15:12:24;3.60;;;2.33;;
69894;SDS011;57172;52.034;5.090;2022-07-23T15:14:51;6.32;;;3.10;;
69894;SDS011;57172;52.034;5.090;2022-07-23T15:17:18;5.85;;;2.78;;
69894;SDS011;57172;52.034;5.090;2022-07-23T15:19:46;4.13;;;2.93;;
69894;SDS011;57172;52.034;5.090;2022-07-23T15:22:15;5.10;;;2.90;;
69894;SDS011;57172;52.034;5.090;2022-07-23T15:24:42;4.57;;;2.70;;
69894;SDS011;57172;52.034;5.090;2022-07-23T15:27:09;4.85;;;2.60;;
69894;SDS011;57172;52.034;5.090;2022-07-23T15:29:36;4.43;;;2.53;;
69894;SDS011;57172;52.034;5.090;2022-07-23T15:32:03;4.33;;;2.70;;
69894;SDS011;57172;52.034;5.090;2022-07-23T15:34:30;4.40;;;2.80;;
69894;SDS011;57172;52.034;5.090;2022-07-23T15:37:00;5.03;;;2.83;;